Terminal Aerodrome Forecast
Issued by NWS

Home | Current Version | Previous Version | Text Only | Print | Product List | Glossary On
Versions: 1 2 3 4 5 6 7 8 9 10 11 12 13 14 15 16 17 18 19 20 21 22 23 24 25 26 27 28 29 30 31 32
000
FTUS46 KLOX 201921 AAA
TAFLAX
TAF AMD
KLAX 201921Z 2019/2124 27014KT P6SM SCT025 SCT060
     FM202100 28017G25KT P6SM SCT250
     FM210300 28012KT P6SM SKC
     FM210600 33007KT P6SM SKC
     FM210900 VRB03KT P6SM SKC
     FM211200 07007KT P6SM SKC
     FM211600 VRB03KT P6SM SKC
     FM212000 26012KT P6SM SCT250=

USA.gov is the U.S. government's official web portal to all federal, state and local government web resources and services.